Necaise, Mississippi
Current Conditions -  °F | °C
As of 1:53 PM on Friday 28 Nov 2014 (Local Time) from KGPT Reporting Station
Clear Clear  
Wind Chill: 55°   Ceiling: Unl
Heat Index: 55°   Visibility: 10mi
Dew Point: 32°   Wind: 7mph
Humidity: 42%   Direction: 160°SSE
Pressure: 30.33"   Gusts: NA
Location:  30.7239°N, 89.1669°W
Report Text: KGPT 281953Z 16006KT 10SM CLR 13/00 A3033 RMK AO2 SLP268 T01280000
Loading
Personal Weather Stations






























Interactive Weather Map New forecast layout! Learn more

10-Day Weather Forecast

Advertisements
Track Severe Weather on mobile